Airfield :
LOGIN :

Register | Disclaimer

   EN    FR    IT 

 










Legend :    VFR   Marginal VFR   IFR   Intensive IFR   Very Intensive IFR
Visi :
Ceiling :
>= 8 km
>= 3000ft
5 to 8 km
1000 to 3000 ft
1500m to 5 km
500 to 1000 ft
800 to 1500m
200 to 500 ft
< 800m
< 200 ft
Symbols :   Thunderstorms  Fog  Heavy snow  Heavy precipitations  Wind > 20 kt
SIGMETs :     Misc.  Thunderstorms  Icing  Turbulence  Mountain Waves  Volcanic Ashes






- Airport Elevation : 408 ft
- IATA code : FKB


EDSB - Karlsruhe Baden Baden

CURRENT METAR :
  • 291050Z VRB03KT 9999 FEW020 14/08 Q1002

EXPIRED METARs :
  • 291020Z VRB03KT 9999 FEW014 SCT019 14/08 Q1002
  • 290950Z 19004KT 130V240 9999 SCT013 13/09 Q1002
  • 290920Z VRB02KT 9999 SCT012 12/09 Q1002
  • 290850Z VRB01KT 9999 SCT005 13/10 Q1002
  • 290820Z VRB02KT 9999 BKN003 11/09 Q1002

TAF AMD TAF EDSB
Valid from the 29 at 08:00 until the 30 at 06:00 UTC


290839Z 2908/3006 VRB02KT 9999 BKN003
BECMG 2908/2910 SCT012
PROB30
TEMPO 2912/2917 SHRA BKN020CB
TEMPO 3000/3006 3000 BR BKN005



MET'MAP, your aeronautical weather chart ! - Copyright ORBIFLY December 2007 - Disclaimer

ORBIFLY MET'MAP TEAM :

Programming & Development : Alexandra Zaïnal
Original concept : Baudouin d'Aumeries
Technical & hardware support : Manuel Goepfert
Assistance : Marc-Olivier Méhu




SOURCES & CREDITS :

   NOAA